Time;durP1;ratioP1;P1;durP2;ratioP2;P2;SDS_P1;SDS_P2;PMS_P1;PMS_P2;Temp;Humidity;BMP_temperature;BMP_pressure;BME280_temperature;BME280_humidity;BME280_pressure;Samples;Min_cycle;Max_cycle;Signal;HPM_P1;HPM_P2
2021/08/23 00:01:42;;;;;;;3.33;3.03;;;;;;;24.16;64.51;100355.66;4957409;28;20113;-80
2021/08/23 00:04:08;;;;;;;5.93;3.10;;;;;;;24.17;64.71;100350.75;4957679;28;20089;-81
2021/08/23 00:06:33;;;;;;;3.40;3.05;;;;;;;24.21;64.39;100348.63;4957351;28;20034;-80
2021/08/23 00:08:59;;;;;;;3.30;3.00;;;;;;;24.25;64.09;100346.47;4957224;28;20109;-80
2021/08/23 00:11:25;;;;;;;6.03;2.95;;;;;;;24.20;64.11;100347.03;4957133;28;20045;-81
2021/08/23 00:13:51;;;;;;;4.07;3.45;;;;;;;24.15;64.16;100344.75;4956825;28;20113;-81
2021/08/23 00:16:16;;;;;;;4.18;3.55;;;;;;;24.08;64.60;100347.81;4957257;28;20062;-81
2021/08/23 00:18:44;;;;;;;5.20;3.15;;;;;;;24.04;64.88;100345.88;4957365;28;20077;-80
2021/08/23 00:21:14;;;;;;;5.13;3.22;;;;;;;24.02;64.70;100344.69;4957174;28;20027;-80
2021/08/23 00:23:49;;;;;;;3.40;3.00;;;;;;;24.03;64.81;100347.13;4957265;28;20066;-79
2021/08/23 00:26:15;;;;;;;3.50;3.20;;;;;;;24.10;64.39;100348.16;4957789;28;20462;-79
2021/08/23 00:28:41;;;;;;;3.40;3.00;;;;;;;24.14;64.04;100348.84;4957400;28;20041;-79
2021/08/23 00:31:06;;;;;;;5.93;3.55;;;;;;;24.11;63.75;100347.69;4957381;28;20438;-79
2021/08/23 00:33:32;;;;;;;4.25;3.03;;;;;;;24.11;63.49;100342.00;4957210;28;20177;-80
2021/08/23 00:35:57;;;;;;;3.88;2.97;;;;;;;24.07;63.38;100347.00;4957378;28;20122;-79
2021/08/23 00:38:23;;;;;;;4.10;3.30;;;;;;;24.10;63.52;100348.94;4957166;28;20165;-79
2021/08/23 00:40:49;;;;;;;3.55;2.67;;;;;;;24.04;63.38;100348.69;4957111;28;20038;-80
2021/08/23 00:43:14;;;;;;;4.40;3.17;;;;;;;24.02;63.30;100345.53;4957501;28;20370;-80
2021/08/23 00:45:40;;;;;;;3.97;3.20;;;;;;;23.95;63.67;100348.56;4956924;28;20516;-79
2021/08/23 00:48:05;;;;;;;3.45;3.00;;;;;;;23.91;63.82;100347.88;4956931;28;20034;-80
2021/08/23 00:50:33;;;;;;;4.47;3.40;;;;;;;23.88;63.95;100345.94;4956844;28;20066;-79
2021/08/23 00:52:59;;;;;;;4.93;3.63;;;;;;;23.87;63.75;100347.19;4956778;28;20501;-79
2021/08/23 00:55:26;;;;;;;4.75;4.15;;;;;;;23.81;63.83;100351.84;4956583;28;20031;-79
2021/08/23 00:57:52;;;;;;;6.63;3.97;;;;;;;23.90;63.25;100346.28;4956741;28;20058;-79
2021/08/23 01:00:18;;;;;;;4.18;3.78;;;;;;;23.74;64.07;100352.81;4956630;28;20105;-79
2021/08/23 01:03:25;;;;;;;3.78;3.47;;;;;;;23.65;64.27;100349.84;4956687;28;20038;-80
2021/08/23 01:05:51;;;;;;;5.22;3.67;;;;;;;23.62;64.16;100344.22;4914609;28;20182;-80
2021/08/23 01:08:32;;;;;;;4.43;3.67;;;;;;;23.59;64.57;100348.75;4957084;28;20089;-79
2021/08/23 01:10:59;;;;;;;3.95;3.33;;;;;;;23.56;64.70;100343.19;4956571;28;20086;-79
2021/08/23 01:13:25;;;;;;;4.68;3.92;;;;;;;23.53;64.55;100342.81;4956586;28;20041;-79
2021/08/23 01:15:52;;;;;;;4.18;3.88;;;;;;;23.57;64.10;100341.94;4956457;28;20066;-79
2021/08/23 01:18:18;;;;;;;3.95;3.65;;;;;;;23.60;64.26;100352.41;4956309;28;20066;-80
2021/08/23 01:20:45;;;;;;;5.47;4.05;;;;;;;23.56;64.31;100346.03;4956516;28;20038;-78
2021/08/23 01:23:12;;;;;;;4.00;3.35;;;;;;;23.56;64.67;100354.56;4956752;28;20382;-79
2021/08/23 01:25:40;;;;;;;6.90;3.90;;;;;;;23.45;64.89;100344.28;4959917;28;20581;-79
2021/08/23 01:28:15;;;;;;;5.60;4.32;;;;;;;23.46;64.74;100348.72;4960033;28;20030;-79
2021/08/23 01:31:07;;;;;;;4.60;4.20;;;;;;;23.46;64.44;100347.91;4959793;28;20023;-79
2021/08/23 01:33:33;;;;;;;4.35;3.97;;;;;;;23.55;64.74;100350.13;4960024;28;20485;-79
2021/08/23 01:36:00;;;;;;;4.55;3.70;;;;;;;23.47;64.56;100333.25;4959843;28;20085;-81
2021/08/23 01:38:26;;;;;;;7.03;4.65;;;;;;;23.57;64.66;100347.63;4960282;28;20038;-81
2021/08/23 01:41:00;;;;;;;4.35;3.42;;;;;;;23.56;64.47;100340.34;4959702;28;20435;-81
2021/08/23 01:43:26;;;;;;;5.35;3.58;;;;;;;23.57;64.63;100341.94;4960364;28;20035;-81
2021/08/23 01:45:51;;;;;;;4.43;3.13;;;;;;;23.42;64.87;100342.31;4959795;28;20371;-82
2021/08/23 01:48:17;;;;;;;5.10;4.45;;;;;;;23.41;65.06;100335.06;4960206;28;20035;-81
2021/08/23 01:50:42;;;;;;;5.18;3.50;;;;;;;23.43;65.37;100338.22;4959992;28;20027;-81
2021/08/23 01:53:08;;;;;;;4.38;3.38;;;;;;;23.42;64.74;100336.66;4959773;28;20039;-81
2021/08/23 01:55:34;;;;;;;4.00;3.60;;;;;;;23.40;65.00;100332.69;4960061;28;20058;-80
2021/08/23 01:58:02;;;;;;;3.97;3.63;;;;;;;23.50;64.62;100332.38;4977815;28;20030;-80
2021/08/23 02:00:27;;;;;;;4.22;3.33;;;;;;;23.50;64.61;100338.06;4960028;28;20030;-80
2021/08/23 02:02:53;;;;;;;5.20;3.88;;;;;;;23.46;64.49;100331.66;4959986;28;20482;-80
2021/08/23 02:05:19;;;;;;;4.63;3.67;;;;;;;23.44;64.60;100334.19;4960656;28;20034;-79
2021/08/23 02:07:46;;;;;;;4.43;4.00;;;;;;;23.54;64.30;100335.09;4959818;28;20474;-80
2021/08/23 02:10:12;;;;;;;5.15;3.78;;;;;;;23.48;63.95;100334.06;4959585;28;20049;-79
2021/08/23 02:12:38;;;;;;;3.47;3.13;;;;;;;23.38;63.95;100333.09;4953618;28;20042;-80
2021/08/23 02:15:04;;;;;;;5.07;3.47;;;;;;;23.36;64.41;100331.97;4959771;28;20031;-81
2021/08/23 02:17:29;;;;;;;5.03;3.60;;;;;;;23.37;64.62;100334.34;4959059;28;20418;-80
2021/08/23 02:19:55;;;;;;;3.55;3.25;;;;;;;23.35;64.59;100325.50;4959446;28;20027;-80
2021/08/23 02:22:21;;;;;;;4.20;3.22;;;;;;;23.33;64.60;100322.31;4959563;28;20374;-79
2021/08/23 02:24:47;;;;;;;3.67;3.38;;;;;;;23.34;64.65;100315.38;4959249;28;20458;-80
2021/08/23 02:27:12;;;;;;;3.70;3.25;;;;;;;23.31;64.65;100326.84;4943314;28;20034;-79
2021/08/23 02:29:40;;;;;;;3.83;2.88;;;;;;;23.30;64.82;100323.19;4959257;28;20053;-80
2021/08/23 02:32:06;;;;;;;3.85;3.13;;;;;;;23.34;64.34;100323.91;4959688;28;20438;-80
2021/08/23 02:34:32;;;;;;;3.45;3.13;;;;;;;23.28;64.92;100320.03;4958899;28;20031;-80
2021/08/23 02:37:00;;;;;;;3.00;2.80;;;;;;;23.32;64.29;100314.22;4958372;28;20058;-80
2021/08/23 02:39:26;;;;;;;4.82;3.40;;;;;;;23.27;64.37;100318.41;4958789;28;20097;-80
2021/08/23 02:41:54;;;;;;;2.97;2.67;;;;;;;23.26;64.57;100322.50;4959640;28;20039;-80
2021/08/23 02:44:21;;;;;;;4.40;3.33;;;;;;;23.25;64.03;100320.91;4958995;28;20031;-80
2021/08/23 02:46:47;;;;;;;4.10;3.30;;;;;;;23.22;64.19;100318.94;4959026;28;20034;-81
2021/08/23 02:49:13;;;;;;;4.47;2.97;;;;;;;23.19;64.40;100322.69;4958639;28;20026;-80
2021/08/23 02:51:39;;;;;;;3.17;2.97;;;;;;;23.11;64.69;100322.06;4959170;28;20042;-80
2021/08/23 02:54:04;;;;;;;2.92;2.60;;;;;;;23.10;65.01;100323.31;4958576;28;20035;-80
2021/08/23 02:56:30;;;;;;;2.90;2.67;;;;;;;23.12;65.12;100317.22;4958850;28;20031;-80
2021/08/23 02:58:55;;;;;;;5.07;3.30;;;;;;;23.18;65.20;100327.56;4958595;28;20039;-80
2021/08/23 03:01:21;;;;;;;6.25;2.83;;;;;;;23.21;64.85;100321.00;4958643;28;20533;-80
2021/08/23 03:03:47;;;;;;;3.42;3.10;;;;;;;23.14;65.23;100323.22;4958544;28;20030;-80
2021/08/23 03:06:12;;;;;;;3.90;3.22;;;;;;;23.24;64.48;100322.16;4958222;28;20498;-80
2021/08/23 03:08:39;;;;;;;3.55;3.10;;;;;;;23.24;64.73;100314.44;4958162;28;20034;-80
2021/08/23 03:11:14;;;;;;;5.97;3.50;;;;;;;23.21;64.57;100323.81;4958197;28;20117;-80
2021/08/23 03:13:42;;;;;;;4.15;3.47;;;;;;;23.11;64.70;100324.09;4958137;28;20019;-80
2021/08/23 03:16:08;;;;;;;3.65;3.10;;;;;;;23.00;64.66;100311.00;4958072;28;20042;-80
2021/08/23 03:18:34;;;;;;;3.33;2.88;;;;;;;23.06;65.17;100319.75;4957944;28;20105;-80
2021/08/23 03:21:00;;;;;;;5.40;3.55;;;;;;;23.03;65.25;100314.22;4958578;28;20504;-80
2021/08/23 03:23:26;;;;;;;4.05;3.05;;;;;;;23.02;65.44;100312.63;4958061;28;20034;-80
2021/08/23 03:25:52;;;;;;;4.10;3.10;;;;;;;23.00;65.33;100313.84;4958048;28;20178;-80
2021/08/23 03:28:17;;;;;;;4.05;3.10;;;;;;;23.00;65.28;100305.31;4957961;28;20035;-80
2021/08/23 03:30:46;;;;;;;4.65;3.05;;;;;;;23.09;64.83;100309.59;4957880;28;20022;-80
2021/08/23 03:33:12;;;;;;;4.97;3.53;;;;;;;23.04;64.92;100304.44;4957784;28;20042;-80
2021/08/23 03:35:38;;;;;;;3.10;2.80;;;;;;;22.97;65.11;100311.91;4957728;28;20481;-80
2021/08/23 03:38:07;;;;;;;4.53;3.92;;;;;;;22.94;65.66;100307.09;4957702;28;20034;-80
2021/08/23 03:40:33;;;;;;;3.67;3.30;;;;;;;22.94;65.97;100300.63;4958443;28;20037;-79
2021/08/23 03:42:58;;;;;;;3.65;2.83;;;;;;;22.91;66.24;100299.50;4958374;28;20038;-80
2021/08/23 03:45:27;;;;;;;3.65;2.90;;;;;;;22.93;66.33;100297.00;4957649;28;20095;-80
2021/08/23 03:47:53;;;;;;;5.40;3.40;;;;;;;22.99;66.10;100291.59;4957682;28;20461;-80
2021/08/23 03:50:21;;;;;;;4.07;2.75;;;;;;;22.90;66.23;100295.03;4958488;28;20478;-81
2021/08/23 03:52:47;;;;;;;3.13;2.83;;;;;;;22.92;66.40;100286.91;4957711;28;20038;-80
2021/08/23 03:55:13;;;;;;;3.90;2.97;;;;;;;22.93;66.02;100299.03;4957531;28;20037;-80
2021/08/23 03:57:38;;;;;;;3.55;2.92;;;;;;;22.88;66.53;100288.25;4957479;28;20173;-80
2021/08/23 04:00:06;;;;;;;3.90;3.10;;;;;;;22.89;66.29;100287.78;4957750;28;20027;-80
2021/08/23 04:02:32;;;;;;;3.63;2.95;;;;;;;22.81;66.39;100286.34;4975078;28;20129;-80
2021/08/23 04:04:58;;;;;;;3.00;2.72;;;;;;;22.81;66.42;100292.03;4958050;28;20374;-80
2021/08/23 04:07:23;;;;;;;5.18;3.05;;;;;;;22.91;66.07;100299.50;4957477;28;20035;-80
2021/08/23 04:09:49;;;;;;;2.70;2.53;;;;;;;22.92;65.90;100291.78;4957386;28;20031;-80
2021/08/23 04:12:15;;;;;;;3.80;2.78;;;;;;;22.89;66.27;100284.94;4957695;28;20039;-80
2021/08/23 04:14:41;;;;;;;5.20;3.15;;;;;;;22.91;66.15;100293.03;4957928;28;20023;-81
2021/08/23 04:17:07;;;;;;;4.15;3.08;;;;;;;22.88;65.87;100302.41;4956975;28;20046;-80
2021/08/23 04:19:32;;;;;;;3.85;3.35;;;;;;;22.95;65.57;100300.19;4957882;28;20089;-80
2021/08/23 04:21:58;;;;;;;6.25;3.58;;;;;;;22.98;65.06;100295.66;4957370;28;20103;-81
2021/08/23 04:24:24;;;;;;;6.07;3.25;;;;;;;22.91;65.06;100295.88;4957369;28;20039;-80
2021/08/23 04:26:49;;;;;;;6.25;3.70;;;;;;;22.87;65.62;100295.91;4957512;28;20045;-80
2021/08/23 04:29:15;;;;;;;7.20;3.75;;;;;;;22.87;65.48;100300.81;4957755;28;20478;-80
2021/08/23 04:31:45;;;;;;;13.85;4.28;;;;;;;22.85;65.57;100298.41;4957264;28;20034;-80
2021/08/23 04:34:11;;;;;;;6.07;3.55;;;;;;;22.84;65.77;100302.47;4957226;28;20065;-80
2021/08/23 04:36:38;;;;;;;4.45;2.92;;;;;;;22.88;65.75;100288.25;4957271;28;20031;-80
2021/08/23 04:39:04;;;;;;;6.55;3.65;;;;;;;22.93;65.88;100294.16;4957573;28;20355;-80
2021/08/23 04:41:41;;;;;;;6.10;3.60;;;;;;;23.02;65.82;100289.91;4957362;28;20038;-80
2021/08/23 04:44:07;;;;;;;6.75;3.65;;;;;;;23.13;65.31;100290.44;4957111;28;20478;-80
2021/08/23 04:46:33;;;;;;;8.02;3.83;;;;;;;23.30;65.21;100291.97;4957303;28;20053;-81
2021/08/23 04:49:02;;;;;;;3.20;2.80;;;;;;;23.55;64.68;100302.63;4956967;28;20090;-79
2021/08/23 04:51:27;;;;;;;3.28;2.88;;;;;;;23.83;63.28;100295.34;4957241;28;20055;-81
2021/08/23 04:53:58;;;;;;;3.53;3.00;;;;;;;24.05;62.94;100293.44;4957165;28;20493;-80
2021/08/23 04:56:26;;;;;;;4.55;2.90;;;;;;;24.33;61.86;100305.19;4957125;28;20031;-80
2021/08/23 04:58:52;;;;;;;3.72;3.28;;;;;;;24.56;61.23;100299.19;4957875;28;20084;-81
2021/08/23 05:01:17;;;;;;;4.03;3.28;;;;;;;24.80;59.98;100301.66;4944961;28;20038;-80
2021/08/23 05:03:43;;;;;;;4.82;3.20;;;;;;;25.04;59.19;100293.53;4960486;28;20466;-80
2021/08/23 05:06:08;;;;;;;7.10;3.30;;;;;;;25.40;58.11;100303.66;4960571;28;20062;-80
2021/08/23 05:08:36;;;;;;;4.82;3.17;;;;;;;25.66;57.35;100304.34;4960789;28;20034;-81
2021/08/23 05:11:02;;;;;;;3.88;3.58;;;;;;;25.94;56.86;100303.31;4960493;28;20046;-81
2021/08/23 05:13:32;;;;;;;5.93;3.25;;;;;;;26.19;55.60;100295.81;4960407;28;20019;-80
2021/08/23 05:15:58;;;;;;;3.30;3.00;;;;;;;26.44;54.94;100301.34;4960232;28;20035;-81
2021/08/23 05:18:23;;;;;;;7.35;3.97;;;;;;;26.74;54.22;100296.03;4959973;28;20055;-80
2021/08/23 05:20:50;;;;;;;5.22;3.50;;;;;;;26.98;53.77;100301.97;4960729;28;20473;-81
2021/08/23 05:23:15;;;;;;;4.32;3.15;;;;;;;27.27;52.63;100305.22;4960431;28;20038;-80
2021/08/23 05:25:43;;;;;;;3.30;2.70;;;;;;;27.50;52.17;100295.19;4960387;28;20113;-80
2021/08/23 05:28:08;;;;;;;6.72;3.45;;;;;;;27.85;51.17;100304.22;4960072;28;20125;-81
2021/08/23 05:30:34;;;;;;;3.67;3.38;;;;;;;28.11;50.51;100298.91;4960328;28;20162;-80
2021/08/23 05:33:00;;;;;;;2.88;2.67;;;;;;;28.45;49.74;100299.78;4960485;28;20382;-81
2021/08/23 05:35:26;;;;;;;5.70;3.38;;;;;;;28.70;48.83;100296.44;4959863;28;20061;-81
2021/08/23 05:37:52;;;;;;;4.43;3.85;;;;;;;29.01;48.43;100295.34;4959937;28;20116;-81
2021/08/23 05:40:22;;;;;;;3.78;3.47;;;;;;;29.21;47.19;100289.78;4960415;28;20070;-80
2021/08/23 05:42:49;;;;;;;3.92;3.50;;;;;;;29.43;47.10;100297.25;4960303;28;20482;-80
2021/08/23 05:45:15;;;;;;;6.75;3.47;;;;;;;29.36;47.88;100298.44;4959914;28;20110;-81
2021/08/23 05:47:40;;;;;;;4.88;3.30;;;;;;;29.79;46.81;100295.34;4960034;28;20066;-81
2021/08/23 05:50:07;;;;;;;4.10;3.03;;;;;;;29.92;46.15;100299.50;4960299;28;20026;-81
2021/08/23 05:52:33;;;;;;;3.33;2.80;;;;;;;30.18;45.14;100299.72;4960308;28;20038;-80
2021/08/23 05:54:58;;;;;;;4.28;2.67;;;;;;;30.54;44.56;100297.69;4959822;28;20392;-80
2021/08/23 05:57:26;;;;;;;4.07;2.80;;;;;;;30.67;44.23;100309.63;4960231;28;20073;-81
2021/08/23 05:59:52;;;;;;;4.43;3.13;;;;;;;30.76;44.56;100303.78;4960001;28;20080;-80
2021/08/23 06:02:18;;;;;;;5.47;2.78;;;;;;;30.51;45.03;100302.31;4959700;28;20062;-81
2021/08/23 06:04:45;;;;;;;5.07;2.63;;;;;;;30.26;45.55;100306.66;4959883;28;20034;-81
2021/08/23 06:07:14;;;;;;;4.53;2.85;;;;;;;29.99;46.88;100299.13;4959554;28;20031;-80
2021/08/23 06:09:40;;;;;;;3.08;2.58;;;;;;;29.74;47.87;100296.84;4959584;28;20057;-81
2021/08/23 06:12:06;;;;;;;7.07;2.85;;;;;;;29.74;48.06;100293.97;4944360;28;20038;-80
2021/08/23 06:14:32;;;;;;;3.58;2.90;;;;;;;29.53;48.58;100295.91;4959616;28;20433;-80
2021/08/23 06:16:58;;;;;;;2.65;2.42;;;;;;;29.58;48.48;100303.84;4959542;28;20058;-81
2021/08/23 06:19:23;;;;;;;7.25;3.25;;;;;;;29.59;48.01;100299.69;4959459;28;20026;-81
2021/08/23 06:21:49;;;;;;;4.10;3.13;;;;;;;29.46;48.39;100296.28;4959902;28;20039;-80
2021/08/23 06:24:14;;;;;;;3.55;3.25;;;;;;;29.21;49.96;100292.66;4959241;28;20026;-81
2021/08/23 06:26:40;;;;;;;6.03;3.70;;;;;;;29.03;50.72;100295.66;4959546;28;20161;-80
2021/08/23 06:29:07;;;;;;;7.03;4.05;;;;;;;29.71;49.03;100295.72;4959110;28;20027;-80
2021/08/23 06:31:33;;;;;;;7.45;4.72;;;;;;;28.93;51.17;100300.66;4959085;28;20490;-80
2021/08/23 06:33:59;;;;;;;5.72;4.75;;;;;;;29.48;49.52;100293.69;4958819;28;20069;-80
2021/08/23 06:36:24;;;;;;;6.70;5.10;;;;;;;29.28;50.12;100291.47;4958875;28;20116;-80
2021/08/23 06:38:50;;;;;;;8.13;5.13;;;;;;;29.49;49.77;100293.19;4958605;28;20136;-80
2021/08/23 06:41:20;;;;;;;5.50;4.80;;;;;;;29.11;51.71;100293.22;4959436;28;20450;-79
2021/08/23 06:43:47;;;;;;;6.47;4.32;;;;;;;29.38;50.82;100283.59;4958838;28;20109;-79
2021/08/23 06:46:13;;;;;;;6.20;4.50;;;;;;;29.84;49.78;100280.31;4958986;28;20125;-79
2021/08/23 06:48:39;;;;;;;6.07;4.68;;;;;;;29.69;50.71;100291.78;4958745;28;20046;-81
2021/08/23 06:51:05;;;;;;;5.07;4.53;;;;;;;29.25;51.35;100291.69;4959010;28;20035;-79
2021/08/23 06:53:30;;;;;;;8.55;5.65;;;;;;;29.56;50.10;100302.72;4958726;28;20482;-79
2021/08/23 06:55:56;;;;;;;9.48;6.50;;;;;;;29.46;50.50;100293.41;4958342;28;20023;-80
2021/08/23 06:58:22;;;;;;;9.32;6.38;;;;;;;29.81;49.27;100295.66;4958521;28;20113;-80
2021/08/23 07:00:47;;;;;;;10.50;6.53;;;;;;;30.39;48.20;100299.78;4958811;28;20458;-79
2021/08/23 07:03:13;;;;;;;10.38;6.35;;;;;;;30.23;48.76;100299.03;4958605;28;20456;-80
2021/08/23 07:05:39;;;;;;;7.45;5.50;;;;;;;30.33;48.12;100296.84;4958820;28;20386;-79
2021/08/23 07:08:05;;;;;;;8.75;4.93;;;;;;;30.93;46.68;100300.34;4958237;28;20027;-80
2021/08/23 07:10:30;;;;;;;4.70;4.10;;;;;;;31.45;45.33;100289.00;4958072;28;20031;-80
2021/08/23 07:12:56;;;;;;;4.47;3.97;;;;;;;30.56;47.48;100300.84;4958137;28;20038;-80
2021/08/23 07:15:21;;;;;;;4.75;3.10;;;;;;;30.94;46.15;100296.19;4958076;28;20031;-80
2021/08/23 07:17:47;;;;;;;13.27;6.05;;;;;;;31.06;45.74;100292.19;4957642;28;20433;-80
2021/08/23 07:20:13;;;;;;;5.22;4.03;;;;;;;31.13;45.49;100288.09;4957953;28;20081;-79
2021/08/23 07:22:38;;;;;;;6.65;4.50;;;;;;;30.89;46.45;100288.28;4958022;28;20041;-80
2021/08/23 07:25:05;;;;;;;7.25;4.28;;;;;;;31.34;45.49;100289.69;4957828;28;20545;-79
2021/08/23 07:27:32;;;;;;;9.57;4.50;;;;;;;31.46;44.34;100291.38;4957746;28;20023;-80
2021/08/23 07:29:58;;;;;;;7.57;4.90;;;;;;;31.93;42.43;100289.28;4958062;28;20431;-80
2021/08/23 07:32:24;;;;;;;3.35;3.03;;;;;;;31.29;43.06;100296.16;4958076;28;20133;-79
2021/08/23 07:34:49;;;;;;;7.78;4.00;;;;;;;32.63;41.29;100288.00;4958357;28;20073;-80
2021/08/23 07:37:15;;;;;;;3.10;2.70;;;;;;;32.98;39.31;100292.69;4957894;28;20118;-80
2021/08/23 07:39:43;;;;;;;3.60;2.67;;;;;;;33.40;37.73;100294.72;4957658;28;20398;-80
2021/08/23 07:42:09;;;;;;;3.35;2.58;;;;;;;33.49;38.23;100291.59;4958469;28;20038;-79
2021/08/23 07:44:35;;;;;;;4.22;2.92;;;;;;;33.82;37.22;100287.97;4974814;28;20033;-80
2021/08/23 07:47:00;;;;;;;5.53;3.33;;;;;;;34.00;36.29;100298.28;4958035;28;20035;-79
2021/08/23 07:49:26;;;;;;;8.25;4.00;;;;;;;34.27;36.89;100290.94;4957448;28;20038;-79
2021/08/23 07:51:51;;;;;;;5.70;3.78;;;;;;;34.37;36.21;100298.03;4957621;28;20114;-80
2021/08/23 07:54:19;;;;;;;3.88;3.47;;;;;;;33.66;37.58;100297.41;4958173;28;20480;-80
2021/08/23 07:56:45;;;;;;;4.68;3.80;;;;;;;33.89;37.23;100299.03;4957482;28;20097;-80
2021/08/23 07:59:11;;;;;;;4.55;4.05;;;;;;;33.37;37.91;100270.56;4958188;28;20054;-81
2021/08/23 08:01:37;;;;;;;5.07;3.05;;;;;;;33.06;37.80;100288.78;4957348;28;20449;-79
2021/08/23 08:04:03;;;;;;;5.30;3.13;;;;;;;33.46;37.32;100288.97;4957465;28;20033;-79
2021/08/23 08:06:28;;;;;;;2.88;2.55;;;;;;;33.98;36.31;100291.44;4957269;28;20023;-79
2021/08/23 08:08:54;;;;;;;6.45;3.38;;;;;;;34.48;35.69;100288.59;4957688;28;20043;-79
2021/08/23 08:11:20;;;;;;;3.78;3.35;;;;;;;34.03;36.38;100290.66;4957196;28;20031;-79
2021/08/23 08:13:45;;;;;;;3.65;3.33;;;;;;;33.49;37.34;100287.94;4957191;28;20035;-80
2021/08/23 08:16:11;;;;;;;3.08;2.85;;;;;;;33.15;37.80;100284.91;4957090;28;20050;-79
2021/08/23 08:18:37;;;;;;;6.65;3.00;;;;;;;33.15;37.66;100282.03;4956946;28;20051;-80
2021/08/23 08:21:03;;;;;;;2.35;2.20;;;;;;;34.17;36.08;100283.84;4957456;28;20371;-80
2021/08/23 08:23:28;;;;;;;2.58;2.30;;;;;;;34.92;33.90;100287.69;4957086;28;20374;-80
2021/08/23 08:25:54;;;;;;;2.75;2.55;;;;;;;34.62;34.11;100293.28;4957082;28;20031;-79
2021/08/23 08:28:19;;;;;;;3.63;3.05;;;;;;;33.74;36.19;100283.28;4957451;28;20042;-79
2021/08/23 08:30:45;;;;;;;2.67;2.40;;;;;;;33.76;35.37;100287.19;4957345;28;20508;-80
2021/08/23 08:33:11;;;;;;;2.60;2.40;;;;;;;33.97;35.72;100289.88;4957037;28;20390;-80
2021/08/23 08:35:38;;;;;;;3.33;2.30;;;;;;;34.02;35.12;100278.31;4960891;28;20059;-79
2021/08/23 08:38:04;;;;;;;2.70;2.50;;;;;;;34.31;34.49;100285.69;4961506;28;20056;-79
2021/08/23 08:40:30;;;;;;;2.80;2.33;;;;;;;34.04;35.38;100286.50;4960856;28;20533;-80
2021/08/23 08:42:55;;;;;;;2.55;2.25;;;;;;;33.24;36.88;100284.69;4961400;28;20038;-80
2021/08/23 08:45:21;;;;;;;3.60;2.50;;;;;;;33.02;37.69;100278.81;4960741;28;20034;-80
2021/08/23 08:47:46;;;;;;;2.60;1.98;;;;;;;33.30;36.20;100282.59;4960936;28;20053;-80
2021/08/23 08:50:17;;;;;;;6.38;2.40;;;;;;;34.31;34.24;100285.69;4960749;28;20535;-80
2021/08/23 08:52:46;;;;;;;2.55;2.33;;;;;;;35.05;33.39;100280.56;4961238;28;20042;-79
2021/08/23 08:55:13;;;;;;;2.55;2.17;;;;;;;35.74;31.99;100277.56;4960614;28;20034;-78
2021/08/23 08:57:39;;;;;;;2.80;2.40;;;;;;;34.54;33.81;100288.56;4960575;28;20122;-81
2021/08/23 09:00:08;;;;;;;3.22;2.30;;;;;;;34.74;33.23;100285.38;4960436;28;20057;-77
2021/08/23 09:02:34;;;;;;;2.58;2.13;;;;;;;34.73;33.68;100291.66;4977725;28;20027;-77
2021/08/23 09:05:03;;;;;;;3.95;2.47;;;;;;;34.37;34.40;100292.25;4960493;28;20500;-80
2021/08/23 09:07:37;;;;;;;2.20;2.00;;;;;;;35.65;32.17;100286.59;4960447;28;20482;-78
2021/08/23 09:10:24;;;;;;;2.08;1.95;;;;;;;36.18;30.49;100287.28;4945227;28;20462;-79
2021/08/23 09:13:08;;;;;;;2.42;2.25;;;;;;;34.84;31.32;100295.34;4977597;28;20363;-79
2021/08/23 09:15:36;;;;;;;2.20;2.00;;;;;;;34.95;30.80;100282.19;4960043;28;20026;-80
2021/08/23 09:18:10;;;;;;;2.55;2.30;;;;;;;35.52;30.64;100292.19;4959002;28;20503;-78
2021/08/23 09:20:37;;;;;;;3.13;2.75;;;;;;;34.73;31.63;100283.81;4958948;28;20118;-78
2021/08/23 09:23:08;;;;;;;3.50;2.30;;;;;;;34.33;32.94;100282.25;4958890;28;20023;-82
2021/08/23 09:25:34;;;;;;;2.08;1.75;;;;;;;34.88;31.83;100286.38;4959601;28;20027;-81
2021/08/23 09:28:05;;;;;;;2.08;1.73;;;;;;;35.16;32.48;100284.22;4959311;28;20035;-77
2021/08/23 09:30:32;;;;;;;2.88;1.98;;;;;;;35.75;31.60;100281.28;4958918;28;20023;-78
2021/08/23 09:33:01;;;;;;;2.00;1.90;;;;;;;35.99;30.82;100274.81;4959319;28;20041;-79
2021/08/23 09:35:28;;;;;;;2.50;2.07;;;;;;;35.36;32.26;100273.59;4958492;28;20062;-80
2021/08/23 09:37:54;;;;;;;3.47;2.45;;;;;;;35.20;33.23;100283.13;4959337;28;20427;-77
2021/08/23 09:40:27;;;;;;;2.55;2.35;;;;;;;34.72;33.69;100273.53;4959030;28;20063;-79
2021/08/23 09:43:08;;;;;;;2.38;2.17;;;;;;;33.88;34.50;100268.59;4959128;28;20481;-77
2021/08/23 09:45:33;;;;;;;3.03;1.98;;;;;;;34.28;33.17;100266.50;4960243;28;20046;-81
2021/08/23 09:48:04;;;;;;;4.78;2.50;;;;;;;34.25;32.58;100273.34;4958505;28;20482;-76
2021/08/23 09:50:48;;;;;;;4.50;2.30;;;;;;;33.86;34.15;100265.44;4959245;28;20414;-77
2021/08/23 09:53:22;;;;;;;3.83;2.30;;;;;;;34.07;34.17;100263.13;4958961;28;20031;-78
2021/08/23 09:55:50;;;;;;;2.00;1.80;;;;;;;34.49;34.01;100257.59;4958353;28;20090;-80
2021/08/23 09:58:16;;;;;;;3.83;2.20;;;;;;;35.06;33.25;100256.91;4958899;28;20038;-79
2021/08/23 10:00:47;;;;;;;4.38;2.25;;;;;;;34.84;33.09;100257.78;4958423;28;20050;-80
2021/08/23 10:03:20;;;;;;;3.45;2.25;;;;;;;35.74;31.35;100248.63;4958546;28;20027;-81
2021/08/23 10:05:50;;;;;;;3.53;2.10;;;;;;;35.52;32.17;100245.91;4958310;28;20050;-80
2021/08/23 10:08:19;;;;;;;2.53;2.33;;;;;;;35.15;33.27;100250.81;4958322;28;20027;-80
2021/08/23 10:10:46;;;;;;;5.25;2.53;;;;;;;35.01;33.91;100251.16;4958499;28;20027;-79
2021/08/23 10:13:13;;;;;;;3.90;2.35;;;;;;;34.22;33.85;100239.75;4958720;28;20558;-80
2021/08/23 10:15:39;;;;;;;3.97;2.40;;;;;;;34.93;33.11;100248.78;4958338;28;20031;-80
2021/08/23 10:18:08;;;;;;;3.97;2.20;;;;;;;34.25;34.72;100243.66;4894180;28;1894228;-80
2021/08/23 10:20:39;;;;;;;2.70;2.50;;;;;;;33.60;36.45;100231.03;4958896;28;20046;-81
2021/08/23 10:23:06;;;;;;;2.72;2.53;;;;;;;34.79;34.21;100241.22;4959699;28;20123;-80
2021/08/23 10:25:34;;;;;;;6.20;2.47;;;;;;;34.39;34.16;100237.63;4958660;28;20027;-81
2021/08/23 10:28:21;;;;;;;2.72;2.03;;;;;;;34.12;34.65;100235.56;4976792;28;20034;-81
2021/08/23 10:30:50;;;;;;;2.53;2.33;;;;;;;33.77;35.86;100225.31;4975902;28;20023;-81
2021/08/23 10:33:18;;;;;;;2.88;2.45;;;;;;;33.37;39.48;100230.19;4959628;28;20065;-81
2021/08/23 10:35:50;;;;;;;4.13;2.80;;;;;;;33.53;38.44;100230.78;4959085;28;20485;-81
2021/08/23 10:38:18;;;;;;;4.95;2.58;;;;;;;33.65;38.55;100220.03;4958725;28;20035;-79
2021/08/23 10:40:48;;;;;;;4.82;2.20;;;;;;;33.69;38.25;100221.38;4975984;28;20038;-79
2021/08/23 10:43:16;;;;;;;4.40;2.53;;;;;;;33.60;38.80;100225.28;4959127;28;20027;-79
2021/08/23 10:45:42;;;;;;;4.05;2.60;;;;;;;33.31;39.95;100220.75;4958399;28;20027;-79
2021/08/23 10:48:17;;;;;;;4.30;2.70;;;;;;;33.25;39.75;100227.81;4958882;28;20031;-82
2021/08/23 10:50:56;;;;;;;3.22;2.40;;;;;;;33.89;38.35;100221.13;4958804;28;20022;-80
2021/08/23 10:53:35;;;;;;;2.50;2.30;;;;;;;33.55;39.44;100222.38;4947404;28;20038;-81
2021/08/23 10:56:23;;;;;;;5.50;3.20;;;;;;;32.93;40.18;100221.41;4958466;28;20038;-81
2021/08/23 10:59:14;;;;;;;3.38;2.63;;;;;;;33.75;39.40;100225.03;4974516;28;20043;-79
2021/08/23 11:01:40;;;;;;;3.13;2.70;;;;;;;33.85;40.05;100222.69;4958713;28;20382;-80
2021/08/23 11:04:07;;;;;;;3.40;2.67;;;;;;;34.01;39.96;100226.91;4958405;28;20063;-80
2021/08/23 11:06:34;;;;;;;3.03;2.70;;;;;;;33.99;40.08;100223.78;4958784;28;20061;-79
2021/08/23 11:09:07;;;;;;;4.30;2.80;;;;;;;34.06;40.23;100214.56;4958387;28;20113;-79
2021/08/23 11:11:37;;;;;;;5.43;2.60;;;;;;;33.72;40.75;100213.75;4958232;28;20030;-81
2021/08/23 11:14:15;;;;;;;5.47;2.95;;;;;;;34.11;39.83;100222.44;4958892;28;20039;-81
2021/08/23 11:16:41;;;;;;;4.15;3.35;;;;;;;34.71;39.27;100222.84;4958257;28;20058;-80
2021/08/23 11:19:07;;;;;;;3.45;3.00;;;;;;;34.19;40.00;100223.47;4957936;28;20088;-80
2021/08/23 11:21:33;;;;;;;5.82;2.72;;;;;;;33.92;41.53;100218.47;4958589;28;20042;-80
2021/08/23 11:24:06;;;;;;;4.13;2.40;;;;;;;34.13;41.21;100214.03;4958257;28;20074;-79
2021/08/23 11:26:32;;;;;;;3.22;2.67;;;;;;;34.32;40.72;100214.28;4958119;28;20038;-79